Terminal Aerodrome Forecast
Issued by NWS

Home | Current Version | Previous Version | Text Only | Print | Product List | Glossary Off
Versions: 1 2 3 4 5 6 7 8 9 10 11 12 13 14 15 16 17 18 19 20

000
FTUS43 KMPX 271650 AAD
TAFAXN
TAF AMD
KAXN 271650Z 2717/2812 14012KT P6SM FEW015 BKN021
      TEMPO 2717/2718 SCT015
     FM271800 14012G19KT P6SM FEW015 SCT030
     FM280000 14011G17KT P6SM VCTS BKN040CB
     FM280800 16016G24KT 5SM -TSRA OVC040CB=

USA.gov is the U.S. government's official web portal to all federal, state and local government web resources and services.